sensor_id;sensor_type;location;lat;lon;timestamp;P1;durP1;ratioP1;P2;durP2;ratioP2
3443;SDS011;1736;52.068;6.968;2022-07-10T00:01:20;5.20;;;1.93;;
3443;SDS011;1736;52.068;6.968;2022-07-10T00:03:47;2.60;;;1.73;;
3443;SDS011;1736;52.068;6.968;2022-07-10T00:06:14;5.70;;;2.13;;
3443;SDS011;1736;52.068;6.968;2022-07-10T00:08:42;2.00;;;1.83;;
3443;SDS011;1736;52.068;6.968;2022-07-10T00:11:09;4.00;;;1.97;;
3443;SDS011;1736;52.068;6.968;2022-07-10T00:13:35;4.20;;;2.40;;
3443;SDS011;1736;52.068;6.968;2022-07-10T00:16:02;2.50;;;1.67;;
3443;SDS011;1736;52.068;6.968;2022-07-10T00:18:28;7.73;;;2.10;;
3443;SDS011;1736;52.068;6.968;2022-07-10T00:20:55;3.40;;;2.23;;
3443;SDS011;1736;52.068;6.968;2022-07-10T00:23:22;6.20;;;2.50;;
3443;SDS011;1736;52.068;6.968;2022-07-10T00:25:50;4.77;;;2.43;;
3443;SDS011;1736;52.068;6.968;2022-07-10T00:28:16;4.83;;;2.40;;
3443;SDS011;1736;52.068;6.968;2022-07-10T00:30:43;3.77;;;1.90;;
3443;SDS011;1736;52.068;6.968;2022-07-10T00:33:09;14.00;;;2.70;;
3443;SDS011;1736;52.068;6.968;2022-07-10T00:35:36;3.30;;;2.47;;
3443;SDS011;1736;52.068;6.968;2022-07-10T00:38:02;4.03;;;1.83;;
3443;SDS011;1736;52.068;6.968;2022-07-10T00:40:29;6.23;;;2.17;;
3443;SDS011;1736;52.068;6.968;2022-07-10T00:42:56;5.03;;;2.20;;
3443;SDS011;1736;52.068;6.968;2022-07-10T00:45:23;8.50;;;2.40;;
3443;SDS011;1736;52.068;6.968;2022-07-10T00:47:50;5.23;;;2.00;;
3443;SDS011;1736;52.068;6.968;2022-07-10T00:50:17;8.30;;;2.40;;
3443;SDS011;1736;52.068;6.968;2022-07-10T00:52:43;4.50;;;1.97;;
3443;SDS011;1736;52.068;6.968;2022-07-10T00:55:11;4.10;;;1.97;;
3443;SDS011;1736;52.068;6.968;2022-07-10T00:57:39;5.27;;;2.73;;
3443;SDS011;1736;52.068;6.968;2022-07-10T01:00:08;6.03;;;2.57;;
3443;SDS011;1736;52.068;6.968;2022-07-10T01:02:36;5.83;;;2.60;;
3443;SDS011;1736;52.068;6.968;2022-07-10T01:05:06;6.37;;;2.57;;
3443;SDS011;1736;52.068;6.968;2022-07-10T01:07:32;5.33;;;2.60;;
3443;SDS011;1736;52.068;6.968;2022-07-10T01:09:59;7.50;;;2.83;;
3443;SDS011;1736;52.068;6.968;2022-07-10T01:12:27;3.93;;;2.30;;
3443;SDS011;1736;52.068;6.968;2022-07-10T01:14:53;2.97;;;2.03;;
3443;SDS011;1736;52.068;6.968;2022-07-10T01:17:22;6.50;;;2.27;;
3443;SDS011;1736;52.068;6.968;2022-07-10T01:19:49;6.63;;;2.87;;
3443;SDS011;1736;52.068;6.968;2022-07-10T01:22:17;2.83;;;2.20;;
3443;SDS011;1736;52.068;6.968;2022-07-10T01:24:43;4.73;;;2.57;;
3443;SDS011;1736;52.068;6.968;2022-07-10T01:27:10;5.53;;;2.50;;
3443;SDS011;1736;52.068;6.968;2022-07-10T01:29:36;4.03;;;2.20;;
3443;SDS011;1736;52.068;6.968;2022-07-10T01:32:04;6.13;;;2.00;;
3443;SDS011;1736;52.068;6.968;2022-07-10T01:34:31;5.60;;;2.43;;
3443;SDS011;1736;52.068;6.968;2022-07-10T01:36:58;3.50;;;2.37;;
3443;SDS011;1736;52.068;6.968;2022-07-10T01:39:26;3.93;;;2.37;;
3443;SDS011;1736;52.068;6.968;2022-07-10T01:41:52;7.43;;;2.20;;
3443;SDS011;1736;52.068;6.968;2022-07-10T01:44:19;5.80;;;2.13;;
3443;SDS011;1736;52.068;6.968;2022-07-10T01:46:45;2.80;;;1.80;;
3443;SDS011;1736;52.068;6.968;2022-07-10T01:49:13;3.87;;;1.93;;
3443;SDS011;1736;52.068;6.968;2022-07-10T01:51:40;4.33;;;1.70;;
3443;SDS011;1736;52.068;6.968;2022-07-10T01:54:07;8.77;;;2.50;;
3443;SDS011;1736;52.068;6.968;2022-07-10T01:56:35;4.20;;;2.20;;
3443;SDS011;1736;52.068;6.968;2022-07-10T01:59:03;4.50;;;2.00;;
3443;SDS011;1736;52.068;6.968;2022-07-10T02:01:30;5.63;;;2.33;;
3443;SDS011;1736;52.068;6.968;2022-07-10T02:03:56;10.60;;;2.30;;
3443;SDS011;1736;52.068;6.968;2022-07-10T02:06:40;10.03;;;2.63;;
3443;SDS011;1736;52.068;6.968;2022-07-10T02:09:07;2.60;;;1.87;;
3443;SDS011;1736;52.068;6.968;2022-07-10T02:11:35;5.63;;;2.60;;
3443;SDS011;1736;52.068;6.968;2022-07-10T02:14:01;15.27;;;2.60;;
3443;SDS011;1736;52.068;6.968;2022-07-10T02:16:28;7.83;;;2.30;;
3443;SDS011;1736;52.068;6.968;2022-07-10T02:18:54;5.63;;;1.97;;
3443;SDS011;1736;52.068;6.968;2022-07-10T02:21:21;8.47;;;2.37;;
3443;SDS011;1736;52.068;6.968;2022-07-10T02:23:47;3.30;;;2.30;;
3443;SDS011;1736;52.068;6.968;2022-07-10T02:26:14;5.30;;;2.00;;
3443;SDS011;1736;52.068;6.968;2022-07-10T02:28:42;4.80;;;2.00;;
3443;SDS011;1736;52.068;6.968;2022-07-10T02:31:08;5.80;;;2.20;;
3443;SDS011;1736;52.068;6.968;2022-07-10T02:33:35;5.37;;;2.40;;
3443;SDS011;1736;52.068;6.968;2022-07-10T02:36:02;6.77;;;2.27;;
3443;SDS011;1736;52.068;6.968;2022-07-10T02:38:29;4.40;;;2.00;;
3443;SDS011;1736;52.068;6.968;2022-07-10T02:40:55;10.80;;;2.50;;
3443;SDS011;1736;52.068;6.968;2022-07-10T02:43:22;7.83;;;2.10;;
3443;SDS011;1736;52.068;6.968;2022-07-10T02:45:50;2.80;;;1.60;;
3443;SDS011;1736;52.068;6.968;2022-07-10T02:48:16;5.17;;;2.20;;
3443;SDS011;1736;52.068;6.968;2022-07-10T02:50:43;2.87;;;2.10;;
3443;SDS011;1736;52.068;6.968;2022-07-10T02:53:09;11.27;;;2.07;;
3443;SDS011;1736;52.068;6.968;2022-07-10T02:55:36;6.93;;;2.27;;
3443;SDS011;1736;52.068;6.968;2022-07-10T02:58:03;5.70;;;2.53;;
3443;SDS011;1736;52.068;6.968;2022-07-10T03:00:29;7.50;;;2.40;;
3443;SDS011;1736;52.068;6.968;2022-07-10T03:02:57;6.53;;;2.37;;
3443;SDS011;1736;52.068;6.968;2022-07-10T03:05:24;3.93;;;2.50;;
3443;SDS011;1736;52.068;6.968;2022-07-10T03:07:50;4.23;;;2.30;;
3443;SDS011;1736;52.068;6.968;2022-07-10T03:10:17;9.60;;;2.63;;
3443;SDS011;1736;52.068;6.968;2022-07-10T03:12:43;5.00;;;2.30;;
3443;SDS011;1736;52.068;6.968;2022-07-10T03:15:10;7.60;;;2.60;;
3443;SDS011;1736;52.068;6.968;2022-07-10T03:17:37;6.23;;;2.50;;
3443;SDS011;1736;52.068;6.968;2022-07-10T03:20:06;7.30;;;2.57;;
3443;SDS011;1736;52.068;6.968;2022-07-10T03:22:34;9.37;;;2.70;;
3443;SDS011;1736;52.068;6.968;2022-07-10T03:25:00;6.27;;;2.67;;
3443;SDS011;1736;52.068;6.968;2022-07-10T03:27:27;7.60;;;2.20;;
3443;SDS011;1736;52.068;6.968;2022-07-10T03:29:53;3.83;;;2.17;;
3443;SDS011;1736;52.068;6.968;2022-07-10T03:32:20;6.43;;;2.37;;
3443;SDS011;1736;52.068;6.968;2022-07-10T03:34:46;8.97;;;2.70;;
3443;SDS011;1736;52.068;6.968;2022-07-10T03:37:14;3.50;;;2.80;;
3443;SDS011;1736;52.068;6.968;2022-07-10T03:39:41;6.43;;;2.70;;
3443;SDS011;1736;52.068;6.968;2022-07-10T03:42:07;5.20;;;2.47;;
3443;SDS011;1736;52.068;6.968;2022-07-10T03:44:34;10.00;;;2.77;;
3443;SDS011;1736;52.068;6.968;2022-07-10T03:47:00;6.10;;;2.60;;
3443;SDS011;1736;52.068;6.968;2022-07-10T03:49:27;3.30;;;2.50;;
3443;SDS011;1736;52.068;6.968;2022-07-10T03:51:53;12.87;;;2.27;;
3443;SDS011;1736;52.068;6.968;2022-07-10T03:54:21;10.10;;;2.60;;
3443;SDS011;1736;52.068;6.968;2022-07-10T03:56:48;7.73;;;2.80;;
3443;SDS011;1736;52.068;6.968;2022-07-10T03:59:32;5.07;;;2.43;;
3443;SDS011;1736;52.068;6.968;2022-07-10T04:01:59;10.47;;;2.87;;
3443;SDS011;1736;52.068;6.968;2022-07-10T04:04:25;7.00;;;2.60;;
3443;SDS011;1736;52.068;6.968;2022-07-10T04:06:52;6.13;;;3.03;;
3443;SDS011;1736;52.068;6.968;2022-07-10T04:09:19;5.47;;;2.57;;
3443;SDS011;1736;52.068;6.968;2022-07-10T04:11:47;6.90;;;2.50;;
3443;SDS011;1736;52.068;6.968;2022-07-10T04:14:13;9.73;;;2.73;;
3443;SDS011;1736;52.068;6.968;2022-07-10T04:16:40;5.80;;;2.50;;
3443;SDS011;1736;52.068;6.968;2022-07-10T04:19:06;4.47;;;2.47;;
3443;SDS011;1736;52.068;6.968;2022-07-10T04:21:33;5.57;;;2.10;;
3443;SDS011;1736;52.068;6.968;2022-07-10T04:23:59;8.17;;;2.40;;
3443;SDS011;1736;52.068;6.968;2022-07-10T04:26:26;4.93;;;2.57;;
3443;SDS011;1736;52.068;6.968;2022-07-10T04:28:54;10.40;;;2.97;;
3443;SDS011;1736;52.068;6.968;2022-07-10T04:31:20;4.50;;;2.50;;
3443;SDS011;1736;52.068;6.968;2022-07-10T04:33:47;7.90;;;2.93;;
3443;SDS011;1736;52.068;6.968;2022-07-10T04:36:14;8.30;;;2.60;;
3443;SDS011;1736;52.068;6.968;2022-07-10T04:38:41;6.50;;;2.40;;
3443;SDS011;1736;52.068;6.968;2022-07-10T04:41:07;18.63;;;3.03;;
3443;SDS011;1736;52.068;6.968;2022-07-10T04:43:34;8.13;;;2.30;;
3443;SDS011;1736;52.068;6.968;2022-07-10T04:46:02;10.17;;;2.43;;
3443;SDS011;1736;52.068;6.968;2022-07-10T04:48:28;3.90;;;2.00;;
3443;SDS011;1736;52.068;6.968;2022-07-10T04:50:55;10.40;;;2.70;;
3443;SDS011;1736;52.068;6.968;2022-07-10T04:53:22;9.83;;;2.37;;
3443;SDS011;1736;52.068;6.968;2022-07-10T04:55:49;3.13;;;1.80;;
3443;SDS011;1736;52.068;6.968;2022-07-10T04:58:16;3.97;;;2.23;;
3443;SDS011;1736;52.068;6.968;2022-07-10T05:00:42;7.97;;;2.57;;
3443;SDS011;1736;52.068;6.968;2022-07-10T05:03:10;6.53;;;2.33;;
3443;SDS011;1736;52.068;6.968;2022-07-10T05:05:36;7.47;;;2.43;;
3443;SDS011;1736;52.068;6.968;2022-07-10T05:08:03;5.93;;;2.50;;
3443;SDS011;1736;52.068;6.968;2022-07-10T05:10:30;4.90;;;2.40;;
3443;SDS011;1736;52.068;6.968;2022-07-10T05:12:56;4.40;;;2.13;;
3443;SDS011;1736;52.068;6.968;2022-07-10T05:15:23;10.30;;;2.53;;
3443;SDS011;1736;52.068;6.968;2022-07-10T05:17:50;4.63;;;2.47;;
3443;SDS011;1736;52.068;6.968;2022-07-10T05:20:18;3.30;;;2.00;;
3443;SDS011;1736;52.068;6.968;2022-07-10T05:22:45;8.80;;;2.07;;
3443;SDS011;1736;52.068;6.968;2022-07-10T05:25:11;10.63;;;2.50;;
3443;SDS011;1736;52.068;6.968;2022-07-10T05:27:38;5.30;;;2.37;;
3443;SDS011;1736;52.068;6.968;2022-07-10T05:30:05;6.50;;;2.57;;
3443;SDS011;1736;52.068;6.968;2022-07-10T05:32:32;4.80;;;1.87;;
3443;SDS011;1736;52.068;6.968;2022-07-10T05:34:58;10.30;;;2.00;;
3443;SDS011;1736;52.068;6.968;2022-07-10T05:37:26;10.97;;;2.47;;
3443;SDS011;1736;52.068;6.968;2022-07-10T05:39:53;8.60;;;2.30;;
3443;SDS011;1736;52.068;6.968;2022-07-10T05:42:19;8.80;;;2.30;;
3443;SDS011;1736;52.068;6.968;2022-07-10T05:44:46;8.60;;;2.30;;
3443;SDS011;1736;52.068;6.968;2022-07-10T05:47:12;6.60;;;1.83;;
3443;SDS011;1736;52.068;6.968;2022-07-10T05:49:39;6.70;;;1.90;;
3443;SDS011;1736;52.068;6.968;2022-07-10T05:52:05;7.47;;;2.30;;
3443;SDS011;1736;52.068;6.968;2022-07-10T05:54:34;5.37;;;1.70;;
3443;SDS011;1736;52.068;6.968;2022-07-10T05:57:00;4.33;;;1.87;;
3443;SDS011;1736;52.068;6.968;2022-07-10T05:59:27;7.60;;;2.40;;
3443;SDS011;1736;52.068;6.968;2022-07-10T06:01:53;5.00;;;2.00;;
3443;SDS011;1736;52.068;6.968;2022-07-10T06:04:20;4.47;;;2.10;;
3443;SDS011;1736;52.068;6.968;2022-07-10T06:06:46;3.40;;;1.93;;
3443;SDS011;1736;52.068;6.968;2022-07-10T06:09:13;2.93;;;2.07;;
3443;SDS011;1736;52.068;6.968;2022-07-10T06:11:41;6.03;;;2.00;;
3443;SDS011;1736;52.068;6.968;2022-07-10T06:14:09;8.17;;;2.10;;
3443;SDS011;1736;52.068;6.968;2022-07-10T06:16:36;7.90;;;2.50;;
3443;SDS011;1736;52.068;6.968;2022-07-10T06:19:02;6.30;;;2.30;;
3443;SDS011;1736;52.068;6.968;2022-07-10T06:21:29;7.37;;;2.70;;
3443;SDS011;1736;52.068;6.968;2022-07-10T06:23:55;3.93;;;2.10;;
3443;SDS011;1736;52.068;6.968;2022-07-10T06:26:22;5.20;;;1.83;;
3443;SDS011;1736;52.068;6.968;2022-07-10T06:28:50;7.33;;;2.23;;
3443;SDS011;1736;52.068;6.968;2022-07-10T06:31:17;7.60;;;2.20;;
3443;SDS011;1736;52.068;6.968;2022-07-10T06:33:43;7.37;;;2.10;;
3443;SDS011;1736;52.068;6.968;2022-07-10T06:36:10;9.73;;;1.87;;
3443;SDS011;1736;52.068;6.968;2022-07-10T06:38:37;13.17;;;2.57;;
3443;SDS011;1736;52.068;6.968;2022-07-10T06:41:04;9.47;;;2.30;;
3443;SDS011;1736;52.068;6.968;2022-07-10T06:43:30;6.60;;;2.40;;
3443;SDS011;1736;52.068;6.968;2022-07-10T06:45:58;3.70;;;2.10;;
3443;SDS011;1736;52.068;6.968;2022-07-10T06:48:25;7.97;;;2.53;;
3443;SDS011;1736;52.068;6.968;2022-07-10T06:50:52;5.13;;;2.10;;
3443;SDS011;1736;52.068;6.968;2022-07-10T06:53:18;3.63;;;1.83;;
3443;SDS011;1736;52.068;6.968;2022-07-10T06:55:49;6.43;;;1.90;;
3443;SDS011;1736;52.068;6.968;2022-07-10T06:58:16;7.03;;;2.60;;
3443;SDS011;1736;52.068;6.968;2022-07-10T07:00:42;7.80;;;2.00;;
3443;SDS011;1736;52.068;6.968;2022-07-10T07:03:10;4.50;;;1.77;;
3443;SDS011;1736;52.068;6.968;2022-07-10T07:05:37;11.20;;;2.40;;
3443;SDS011;1736;52.068;6.968;2022-07-10T07:08:03;5.17;;;2.20;;
3443;SDS011;1736;52.068;6.968;2022-07-10T07:10:30;6.73;;;2.20;;
3443;SDS011;1736;52.068;6.968;2022-07-10T07:12:57;3.37;;;2.07;;
3443;SDS011;1736;52.068;6.968;2022-07-10T07:15:24;5.53;;;1.90;;
3443;SDS011;1736;52.068;6.968;2022-07-10T07:17:51;6.00;;;2.10;;
3443;SDS011;1736;52.068;6.968;2022-07-10T07:20:34;3.63;;;1.80;;
3443;SDS011;1736;52.068;6.968;2022-07-10T07:23:18;5.23;;;2.13;;
3443;SDS011;1736;52.068;6.968;2022-07-10T07:25:45;7.60;;;2.03;;
3443;SDS011;1736;52.068;6.968;2022-07-10T07:28:12;7.70;;;2.90;;
3443;SDS011;1736;52.068;6.968;2022-07-10T07:30:41;4.40;;;2.07;;
3443;SDS011;1736;52.068;6.968;2022-07-10T07:33:08;7.30;;;2.50;;
3443;SDS011;1736;52.068;6.968;2022-07-10T07:35:36;5.70;;;1.93;;
3443;SDS011;1736;52.068;6.968;2022-07-10T07:38:03;5.87;;;2.00;;
3443;SDS011;1736;52.068;6.968;2022-07-10T07:40:31;5.97;;;2.07;;
3443;SDS011;1736;52.068;6.968;2022-07-10T07:42:58;3.40;;;2.10;;
3443;SDS011;1736;52.068;6.968;2022-07-10T07:45:25;6.83;;;2.70;;
3443;SDS011;1736;52.068;6.968;2022-07-10T07:47:54;6.37;;;2.80;;
3443;SDS011;1736;52.068;6.968;2022-07-10T07:50:22;5.93;;;2.30;;
3443;SDS011;1736;52.068;6.968;2022-07-10T07:52:52;6.10;;;2.20;;
3443;SDS011;1736;52.068;6.968;2022-07-10T07:55:19;4.43;;;2.30;;
3443;SDS011;1736;52.068;6.968;2022-07-10T07:57:47;4.63;;;2.20;;
3443;SDS011;1736;52.068;6.968;2022-07-10T08:00:16;6.10;;;2.20;;
3443;SDS011;1736;52.068;6.968;2022-07-10T08:02:43;8.23;;;3.30;;
3443;SDS011;1736;52.068;6.968;2022-07-10T08:05:10;5.73;;;2.97;;
3443;SDS011;1736;52.068;6.968;2022-07-10T08:07:37;9.33;;;3.37;;
3443;SDS011;1736;52.068;6.968;2022-07-10T08:10:07;6.57;;;2.60;;
3443;SDS011;1736;52.068;6.968;2022-07-10T08:12:36;6.33;;;2.50;;
3443;SDS011;1736;52.068;6.968;2022-07-10T08:15:04;5.53;;;2.73;;
3443;SDS011;1736;52.068;6.968;2022-07-10T08:17:32;5.37;;;2.70;;
3443;SDS011;1736;52.068;6.968;2022-07-10T08:19:58;4.70;;;2.03;;
3443;SDS011;1736;52.068;6.968;2022-07-10T08:22:24;6.63;;;2.70;;
3443;SDS011;1736;52.068;6.968;2022-07-10T08:24:51;7.60;;;2.23;;
3443;SDS011;1736;52.068;6.968;2022-07-10T08:27:19;12.50;;;2.37;;
3443;SDS011;1736;52.068;6.968;2022-07-10T08:29:46;7.27;;;3.20;;
3443;SDS011;1736;52.068;6.968;2022-07-10T08:32:12;6.30;;;2.90;;
3443;SDS011;1736;52.068;6.968;2022-07-10T08:34:39;9.83;;;2.40;;
3443;SDS011;1736;52.068;6.968;2022-07-10T08:37:05;4.93;;;2.80;;
3443;SDS011;1736;52.068;6.968;2022-07-10T08:39:32;9.37;;;3.30;;
3443;SDS011;1736;52.068;6.968;2022-07-10T08:41:59;6.90;;;2.50;;
3443;SDS011;1736;52.068;6.968;2022-07-10T08:44:27;4.90;;;2.80;;
3443;SDS011;1736;52.068;6.968;2022-07-10T08:46:55;7.37;;;2.57;;
3443;SDS011;1736;52.068;6.968;2022-07-10T08:49:23;3.53;;;2.50;;
3443;SDS011;1736;52.068;6.968;2022-07-10T08:51:54;6.23;;;2.80;;
3443;SDS011;1736;52.068;6.968;2022-07-10T08:54:24;4.33;;;2.50;;
3443;SDS011;1736;52.068;6.968;2022-07-10T08:56:53;4.27;;;2.60;;
3443;SDS011;1736;52.068;6.968;2022-07-10T08:59:20;4.10;;;2.20;;
3443;SDS011;1736;52.068;6.968;2022-07-10T09:01:48;3.33;;;2.20;;
3443;SDS011;1736;52.068;6.968;2022-07-10T09:04:16;5.30;;;2.37;;
3443;SDS011;1736;52.068;6.968;2022-07-10T09:06:44;5.17;;;2.70;;
3443;SDS011;1736;52.068;6.968;2022-07-10T09:09:11;4.07;;;2.43;;
3443;SDS011;1736;52.068;6.968;2022-07-10T09:11:38;5.90;;;2.27;;
3443;SDS011;1736;52.068;6.968;2022-07-10T09:14:06;3.33;;;2.03;;
3443;SDS011;1736;52.068;6.968;2022-07-10T09:16:34;2.53;;;1.97;;
3443;SDS011;1736;52.068;6.968;2022-07-10T09:21:46;4.50;;;2.20;;
3443;SDS011;1736;52.068;6.968;2022-07-10T09:24:13;2.40;;;1.87;;
3443;SDS011;1736;52.068;6.968;2022-07-10T09:26:42;2.10;;;1.90;;
3443;SDS011;1736;52.068;6.968;2022-07-10T09:29:09;5.33;;;2.00;;
3443;SDS011;1736;52.068;6.968;2022-07-10T09:31:49;5.03;;;2.10;;
3443;SDS011;1736;52.068;6.968;2022-07-10T09:34:18;6.60;;;2.63;;
3443;SDS011;1736;52.068;6.968;2022-07-10T09:37:02;4.57;;;1.90;;
3443;SDS011;1736;52.068;6.968;2022-07-10T09:39:49;2.50;;;2.07;;
3443;SDS011;1736;52.068;6.968;2022-07-10T09:42:23;2.70;;;2.30;;
3443;SDS011;1736;52.068;6.968;2022-07-10T09:45:09;2.67;;;2.20;;
3443;SDS011;1736;52.068;6.968;2022-07-10T09:47:41;2.40;;;2.20;;
3443;SDS011;1736;52.068;6.968;2022-07-10T09:50:19;2.10;;;2.00;;
3443;SDS011;1736;52.068;6.968;2022-07-10T09:52:46;4.40;;;2.53;;
3443;SDS011;1736;52.068;6.968;2022-07-10T09:55:17;3.47;;;2.60;;
3443;SDS011;1736;52.068;6.968;2022-07-10T09:57:45;4.87;;;2.00;;
3443;SDS011;1736;52.068;6.968;2022-07-10T10:00:21;5.90;;;2.73;;
3443;SDS011;1736;52.068;6.968;2022-07-10T10:02:51;3.23;;;2.30;;
3443;SDS011;1736;52.068;6.968;2022-07-10T10:05:24;3.30;;;2.70;;
3443;SDS011;1736;52.068;6.968;2022-07-10T10:07:58;4.97;;;3.10;;
3443;SDS011;1736;52.068;6.968;2022-07-10T10:10:27;3.53;;;2.43;;
3443;SDS011;1736;52.068;6.968;2022-07-10T10:12:58;5.20;;;2.37;;
3443;SDS011;1736;52.068;6.968;2022-07-10T10:15:29;2.57;;;2.00;;
3443;SDS011;1736;52.068;6.968;2022-07-10T10:17:57;6.43;;;2.80;;
3443;SDS011;1736;52.068;6.968;2022-07-10T10:20:26;2.50;;;2.30;;
3443;SDS011;1736;52.068;6.968;2022-07-10T10:23:03;3.60;;;2.50;;
3443;SDS011;1736;52.068;6.968;2022-07-10T10:25:31;2.20;;;2.10;;
3443;SDS011;1736;52.068;6.968;2022-07-10T10:27:59;16.33;;;3.10;;
3443;SDS011;1736;52.068;6.968;2022-07-10T10:30:26;4.90;;;2.30;;
3443;SDS011;1736;52.068;6.968;2022-07-10T10:32:53;3.20;;;2.50;;
3443;SDS011;1736;52.068;6.968;2022-07-10T10:38:11;4.20;;;1.90;;
3443;SDS011;1736;52.068;6.968;2022-07-10T10:40:39;1.83;;;1.73;;
3443;SDS011;1736;52.068;6.968;2022-07-10T10:43:15;1.80;;;1.70;;
3443;SDS011;1736;52.068;6.968;2022-07-10T10:45:42;4.47;;;1.97;;
3443;SDS011;1736;52.068;6.968;2022-07-10T10:48:10;1.67;;;1.57;;
3443;SDS011;1736;52.068;6.968;2022-07-10T10:50:39;1.53;;;1.43;;
3443;SDS011;1736;52.068;6.968;2022-07-10T10:53:15;2.60;;;1.60;;
3443;SDS011;1736;52.068;6.968;2022-07-10T10:58:49;1.53;;;1.30;;
3443;SDS011;1736;52.068;6.968;2022-07-10T11:04:14;3.90;;;1.70;;
3443;SDS011;1736;52.068;6.968;2022-07-10T11:06:44;1.80;;;1.47;;
3443;SDS011;1736;52.068;6.968;2022-07-10T11:09:24;4.37;;;1.40;;
3443;SDS011;1736;52.068;6.968;2022-07-10T11:12:02;1.50;;;1.40;;
3443;SDS011;1736;52.068;6.968;2022-07-10T11:14:30;2.73;;;1.50;;
3443;SDS011;1736;52.068;6.968;2022-07-10T11:16:58;1.63;;;1.53;;
3443;SDS011;1736;52.068;6.968;2022-07-10T11:19:25;2.30;;;1.80;;
3443;SDS011;1736;52.068;6.968;2022-07-10T11:21:56;2.97;;;2.20;;
3443;SDS011;1736;52.068;6.968;2022-07-10T11:25:06;1.90;;;1.80;;
3443;SDS011;1736;52.068;6.968;2022-07-10T11:27:57;2.53;;;2.33;;
3443;SDS011;1736;52.068;6.968;2022-07-10T11:30:42;7.57;;;2.10;;
3443;SDS011;1736;52.068;6.968;2022-07-10T11:33:09;1.93;;;1.83;;
3443;SDS011;1736;52.068;6.968;2022-07-10T11:35:37;3.33;;;2.27;;
3443;SDS011;1736;52.068;6.968;2022-07-10T11:38:04;1.97;;;1.83;;
3443;SDS011;1736;52.068;6.968;2022-07-10T11:40:32;2.57;;;2.37;;
3443;SDS011;1736;52.068;6.968;2022-07-10T11:43:02;6.90;;;2.33;;
3443;SDS011;1736;52.068;6.968;2022-07-10T11:45:32;3.47;;;1.93;;
3443;SDS011;1736;52.068;6.968;2022-07-10T11:48:02;4.50;;;2.03;;
3443;SDS011;1736;52.068;6.968;2022-07-10T11:50:34;7.10;;;1.90;;
3443;SDS011;1736;52.068;6.968;2022-07-10T11:53:02;2.33;;;1.87;;
3443;SDS011;1736;52.068;6.968;2022-07-10T11:55:29;2.10;;;1.80;;
3443;SDS011;1736;52.068;6.968;2022-07-10T11:57:58;1.80;;;1.70;;
3443;SDS011;1736;52.068;6.968;2022-07-10T12:00:25;1.67;;;1.40;;
3443;SDS011;1736;52.068;6.968;2022-07-10T12:02:56;1.90;;;1.57;;
3443;SDS011;1736;52.068;6.968;2022-07-10T12:05:41;2.30;;;1.57;;
3443;SDS011;1736;52.068;6.968;2022-07-10T12:08:07;4.97;;;2.20;;
3443;SDS011;1736;52.068;6.968;2022-07-10T12:10:34;3.03;;;1.90;;
3443;SDS011;1736;52.068;6.968;2022-07-10T12:13:06;1.83;;;1.73;;
3443;SDS011;1736;52.068;6.968;2022-07-10T12:15:34;3.97;;;2.57;;
3443;SDS011;1736;52.068;6.968;2022-07-10T12:18:03;6.97;;;2.60;;
3443;SDS011;1736;52.068;6.968;2022-07-10T12:20:29;4.30;;;2.43;;
3443;SDS011;1736;52.068;6.968;2022-07-10T12:22:57;4.93;;;2.53;;
3443;SDS011;1736;52.068;6.968;2022-07-10T12:25:23;3.70;;;2.90;;
3443;SDS011;1736;52.068;6.968;2022-07-10T12:27:54;2.53;;;2.33;;
3443;SDS011;1736;52.068;6.968;2022-07-10T12:30:22;3.60;;;2.67;;
3443;SDS011;1736;52.068;6.968;2022-07-10T12:32:49;2.83;;;2.63;;
3443;SDS011;1736;52.068;6.968;2022-07-10T12:35:16;4.30;;;2.47;;
3443;SDS011;1736;52.068;6.968;2022-07-10T12:37:48;3.03;;;2.70;;
3443;SDS011;1736;52.068;6.968;2022-07-10T12:40:30;4.77;;;3.33;;
3443;SDS011;1736;52.068;6.968;2022-07-10T12:43:03;3.20;;;2.90;;
3443;SDS011;1736;52.068;6.968;2022-07-10T12:45:32;4.77;;;3.50;;
3443;SDS011;1736;52.068;6.968;2022-07-10T12:47:59;3.97;;;3.07;;
3443;SDS011;1736;52.068;6.968;2022-07-10T12:50:29;4.90;;;3.30;;
3443;SDS011;1736;52.068;6.968;2022-07-10T12:53:08;4.87;;;3.63;;
3443;SDS011;1736;52.068;6.968;2022-07-10T12:55:35;8.70;;;3.63;;
3443;SDS011;1736;52.068;6.968;2022-07-10T12:58:04;3.90;;;3.37;;
3443;SDS011;1736;52.068;6.968;2022-07-10T13:00:35;4.33;;;3.67;;
3443;SDS011;1736;52.068;6.968;2022-07-10T13:03:03;6.20;;;3.70;;
3443;SDS011;1736;52.068;6.968;2022-07-10T13:05:31;4.77;;;3.57;;
3443;SDS011;1736;52.068;6.968;2022-07-10T13:08:09;5.20;;;3.23;;
3443;SDS011;1736;52.068;6.968;2022-07-10T13:10:38;7.27;;;3.30;;
3443;SDS011;1736;52.068;6.968;2022-07-10T13:13:05;6.93;;;3.90;;
3443;SDS011;1736;52.068;6.968;2022-07-10T13:15:32;5.50;;;3.77;;
3443;SDS011;1736;52.068;6.968;2022-07-10T13:18:05;5.23;;;3.63;;
3443;SDS011;1736;52.068;6.968;2022-07-10T13:20:33;5.53;;;3.23;;
3443;SDS011;1736;52.068;6.968;2022-07-10T13:22:59;3.50;;;3.20;;
3443;SDS011;1736;52.068;6.968;2022-07-10T13:25:26;4.00;;;3.13;;
3443;SDS011;1736;52.068;6.968;2022-07-10T13:27:53;8.40;;;3.60;;
3443;SDS011;1736;52.068;6.968;2022-07-10T13:30:19;8.37;;;3.73;;
3443;SDS011;1736;52.068;6.968;2022-07-10T13:32:46;11.30;;;3.60;;
3443;SDS011;1736;52.068;6.968;2022-07-10T13:35:14;4.67;;;3.60;;
3443;SDS011;1736;52.068;6.968;2022-07-10T13:37:41;7.00;;;3.33;;
3443;SDS011;1736;52.068;6.968;2022-07-10T13:40:08;7.00;;;3.50;;
3443;SDS011;1736;52.068;6.968;2022-07-10T13:42:35;4.97;;;2.80;;
3443;SDS011;1736;52.068;6.968;2022-07-10T13:45:01;4.60;;;3.40;;
3443;SDS011;1736;52.068;6.968;2022-07-10T13:47:28;3.90;;;2.90;;
3443;SDS011;1736;52.068;6.968;2022-07-10T13:49:54;7.97;;;3.10;;
3443;SDS011;1736;52.068;6.968;2022-07-10T13:52:22;8.90;;;2.77;;
3443;SDS011;1736;52.068;6.968;2022-07-10T13:54:49;9.33;;;3.13;;
3443;SDS011;1736;52.068;6.968;2022-07-10T13:57:16;3.57;;;2.87;;
3443;SDS011;1736;52.068;6.968;2022-07-10T13:59:42;6.53;;;3.43;;
3443;SDS011;1736;52.068;6.968;2022-07-10T14:02:10;9.13;;;2.60;;
3443;SDS011;1736;52.068;6.968;2022-07-10T14:04:37;6.80;;;2.70;;
3443;SDS011;1736;52.068;6.968;2022-07-10T14:07:04;6.97;;;2.80;;
3443;SDS011;1736;52.068;6.968;2022-07-10T14:09:31;2.60;;;2.30;;
3443;SDS011;1736;52.068;6.968;2022-07-10T14:11:58;5.10;;;3.00;;
3443;SDS011;1736;52.068;6.968;2022-07-10T14:14:25;3.03;;;2.40;;
3443;SDS011;1736;52.068;6.968;2022-07-10T14:16:51;3.13;;;2.20;;
3443;SDS011;1736;52.068;6.968;2022-07-10T14:19:18;2.87;;;2.50;;
3443;SDS011;1736;52.068;6.968;2022-07-10T14:21:45;3.70;;;2.20;;
3443;SDS011;1736;52.068;6.968;2022-07-10T14:24:11;3.67;;;2.40;;
3443;SDS011;1736;52.068;6.968;2022-07-10T14:26:39;4.13;;;2.60;;
3443;SDS011;1736;52.068;6.968;2022-07-10T14:29:06;3.20;;;2.43;;
3443;SDS011;1736;52.068;6.968;2022-07-10T14:31:33;4.80;;;2.33;;
3443;SDS011;1736;52.068;6.968;2022-07-10T14:34:00;3.10;;;2.30;;
3443;SDS011;1736;52.068;6.968;2022-07-10T14:36:26;9.07;;;2.73;;
3443;SDS011;1736;52.068;6.968;2022-07-10T14:38:53;4.37;;;2.70;;
3443;SDS011;1736;52.068;6.968;2022-07-10T14:41:19;2.80;;;2.60;;
3443;SDS011;1736;52.068;6.968;2022-07-10T14:43:47;3.70;;;2.53;;
3443;SDS011;1736;52.068;6.968;2022-07-10T14:46:14;5.53;;;2.20;;
3443;SDS011;1736;52.068;6.968;2022-07-10T14:48:41;4.67;;;2.47;;
3443;SDS011;1736;52.068;6.968;2022-07-10T14:51:08;3.13;;;2.20;;
3443;SDS011;1736;52.068;6.968;2022-07-10T14:53:34;2.93;;;2.23;;
3443;SDS011;1736;52.068;6.968;2022-07-10T14:56:01;2.20;;;1.90;;
3443;SDS011;1736;52.068;6.968;2022-07-10T14:58:29;4.70;;;2.30;;
3443;SDS011;1736;52.068;6.968;2022-07-10T15:00:57;3.90;;;2.50;;
3443;SDS011;1736;52.068;6.968;2022-07-10T15:03:23;2.73;;;2.13;;
3443;SDS011;1736;52.068;6.968;2022-07-10T15:05:50;4.30;;;2.33;;
3443;SDS011;1736;52.068;6.968;2022-07-10T15:08:18;2.77;;;1.90;;
3443;SDS011;1736;52.068;6.968;2022-07-10T15:10:44;3.33;;;2.00;;
3443;SDS011;1736;52.068;6.968;2022-07-10T15:13:12;5.17;;;2.20;;
3443;SDS011;1736;52.068;6.968;2022-07-10T15:15:38;2.20;;;2.00;;
3443;SDS011;1736;52.068;6.968;2022-07-10T15:18:06;2.03;;;1.93;;
3443;SDS011;1736;52.068;6.968;2022-07-10T15:20:34;4.37;;;2.27;;
3443;SDS011;1736;52.068;6.968;2022-07-10T15:23:03;2.20;;;1.97;;
3443;SDS011;1736;52.068;6.968;2022-07-10T15:25:30;5.13;;;2.50;;
3443;SDS011;1736;52.068;6.968;2022-07-10T15:27:57;5.53;;;1.93;;
3443;SDS011;1736;52.068;6.968;2022-07-10T15:30:23;4.30;;;1.97;;
3443;SDS011;1736;52.068;6.968;2022-07-10T15:32:50;3.00;;;1.70;;